Time;durP1;ratioP1;P1;durP2;ratioP2;P2;SDS_P1;SDS_P2;PMS_P1;PMS_P2;Temp;Humidity;BMP_temperature;BMP_pressure;BME280_temperature;BME280_humidity;BME280_pressure;Samples;Min_cycle;Max_cycle;Signal;HPM_P1;HPM_P2
2022/04/16 00:01:13;;;;;;;11.13;4.53;;;;;;;;;;4984963;28;20045;-67
2022/04/16 00:03:41;;;;;;;14.13;5.03;;;;;;;;;;4984152;28;20023;-67
2022/04/16 00:06:07;;;;;;;10.75;4.45;;;;;;;;;;4978211;28;20378;-67
2022/04/16 00:08:32;;;;;;;11.52;4.88;;;;;;;;;;4977915;28;20129;-67
2022/04/16 00:11:00;;;;;;;15.05;5.25;;;;;;;;;;4976966;28;20031;-67
2022/04/16 00:13:26;;;;;;;14.15;4.93;;;;;;;;;;4976910;28;20054;-67
2022/04/16 00:15:55;;;;;;;13.60;4.68;;;;;;;;;;4976718;28;20514;-66
2022/04/16 00:18:21;;;;;;;16.75;5.28;;;;;;;;;;4978325;28;20445;-67
2022/04/16 00:20:51;;;;;;;13.77;5.00;;;;;;;;;;4980448;28;20062;-67
2022/04/16 00:23:20;;;;;;;14.93;5.28;;;;;;;;;;4993907;28;20043;-67
2022/04/16 00:25:48;;;;;;;16.67;5.80;;;;;;;;;;4990118;28;20030;-68
2022/04/16 00:28:14;;;;;;;11.50;4.68;;;;;;;;;;4984461;28;20038;-68
2022/04/16 00:30:40;;;;;;;10.63;4.65;;;;;;;;;;4990854;28;20118;-68
2022/04/16 00:33:06;;;;;;;15.98;4.90;;;;;;;;;;4994653;28;20026;-68
2022/04/16 00:35:32;;;;;;;11.68;4.53;;;;;;;;;;5007550;28;20045;-68
2022/04/16 00:37:58;;;;;;;10.45;4.82;;;;;;;;;;4995774;28;20478;-68
2022/04/16 00:40:23;;;;;;;13.88;4.80;;;;;;;;;;5011432;28;20164;-68
2022/04/16 00:42:50;;;;;;;11.48;4.68;;;;;;;;;;4984999;28;20037;-68
2022/04/16 00:45:15;;;;;;;13.60;4.72;;;;;;;;;;4985402;28;20042;-67
2022/04/16 00:47:41;;;;;;;10.65;4.10;;;;;;;;;;5009720;28;20038;-67
2022/04/16 00:50:08;;;;;;;14.75;5.15;;;;;;;;;;4990080;28;20039;-67
2022/04/16 00:52:38;;;;;;;12.20;4.38;;;;;;;;;;4981568;28;20026;-67
2022/04/16 00:55:05;;;;;;;14.63;4.63;;;;;;;;;;4995287;28;20026;-67
2022/04/16 00:57:31;;;;;;;12.07;4.70;;;;;;;;;;5010795;28;20042;-67
2022/04/16 00:59:56;;;;;;;18.83;4.57;;;;;;;;;;4983982;28;20037;-67
2022/04/16 01:02:22;;;;;;;16.55;4.78;;;;;;;;;;4976271;28;20317;-67
2022/04/16 01:04:47;;;;;;;11.90;4.55;;;;;;;;;;4975985;28;20042;-67
2022/04/16 01:07:13;;;;;;;14.25;4.88;;;;;;;;;;4991222;28;20062;-67
2022/04/16 01:09:38;;;;;;;14.07;4.97;;;;;;;;;;4974498;28;20568;-68
2022/04/16 01:12:05;;;;;;;13.30;4.43;;;;;;;;;;4976151;28;20466;-67
2022/04/16 01:14:32;;;;;;;14.95;5.03;;;;;;;;;;4983967;28;20146;-68
2022/04/16 01:16:57;;;;;;;9.80;4.38;;;;;;;;;;4995454;28;20359;-67
2022/04/16 01:19:24;;;;;;;10.63;4.32;;;;;;;;;;4995446;28;20095;-67
2022/04/16 01:21:51;;;;;;;10.48;4.45;;;;;;;;;;5004315;28;20019;-68
2022/04/16 01:24:17;;;;;;;13.18;4.70;;;;;;;;;;4976013;28;20125;-67
2022/04/16 01:26:42;;;;;;;10.02;4.13;;;;;;;;;;4974678;28;20050;-66
2022/04/16 01:29:09;;;;;;;12.75;4.57;;;;;;;;;;5005529;28;20409;-67
2022/04/16 01:31:34;;;;;;;10.73;4.15;;;;;;;;;;5010239;28;20393;-67
2022/04/16 01:34:00;;;;;;;11.15;4.13;;;;;;;;;;4995009;28;20045;-67
2022/04/16 01:36:29;;;;;;;14.20;5.30;;;;;;;;;;4995202;28;20022;-67
2022/04/16 01:38:58;;;;;;;11.02;4.25;;;;;;;;;;4995018;28;20406;-67
2022/04/16 01:41:28;;;;;;;14.65;4.40;;;;;;;;;;4995251;28;20092;-67
2022/04/16 01:43:56;;;;;;;11.13;4.47;;;;;;;;;;4993146;28;20026;-68
2022/04/16 01:46:21;;;;;;;11.02;4.32;;;;;;;;;;4995032;28;20026;-68
2022/04/16 01:48:49;;;;;;;10.82;4.53;;;;;;;;;;4994459;28;20406;-66
2022/04/16 01:51:17;;;;;;;10.50;4.30;;;;;;;;;;4994884;28;20035;-66
2022/04/16 01:53:43;;;;;;;14.05;4.72;;;;;;;;;;4994762;28;20034;-66
2022/04/16 01:56:09;;;;;;;12.25;4.75;;;;;;;;;;4994780;28;20030;-66
2022/04/16 01:58:38;;;;;;;14.43;4.82;;;;;;;;;;4980059;28;20041;-67
2022/04/16 02:01:04;;;;;;;15.38;4.20;;;;;;;;;;4974797;28;20164;-68
2022/04/16 02:03:30;;;;;;;11.30;3.97;;;;;;;;;;4974997;28;20045;-67
2022/04/16 02:05:55;;;;;;;15.95;4.78;;;;;;;;;;4975018;28;20031;-67
2022/04/16 02:08:21;;;;;;;12.38;4.57;;;;;;;;;;4974918;28;20054;-67
2022/04/16 02:10:46;;;;;;;12.18;4.40;;;;;;;;;;4974932;28;20114;-67
2022/04/16 02:13:11;;;;;;;14.32;4.53;;;;;;;;;;4982715;28;20059;-67
2022/04/16 02:15:38;;;;;;;13.13;4.55;;;;;;;;;;4994209;28;20537;-67
2022/04/16 02:18:03;;;;;;;11.43;4.47;;;;;;;;;;4994447;28;20065;-67
2022/04/16 02:20:29;;;;;;;11.13;4.10;;;;;;;;;;4994300;28;20462;-67
2022/04/16 02:22:54;;;;;;;10.77;4.43;;;;;;;;;;4977703;28;20031;-67
2022/04/16 02:25:26;;;;;;;13.13;4.53;;;;;;;;;;4974529;28;20078;-67
2022/04/16 02:27:51;;;;;;;17.85;4.88;;;;;;;;;;4974791;28;20065;-67
2022/04/16 02:30:18;;;;;;;15.10;4.65;;;;;;;;;;4975145;28;20066;-67
2022/04/16 02:32:45;;;;;;;15.82;5.50;;;;;;;;;;5000938;28;20042;-67
2022/04/16 02:35:13;;;;;;;11.40;4.65;;;;;;;;;;4992863;28;20022;-67
2022/04/16 02:37:39;;;;;;;18.27;5.53;;;;;;;;;;4994153;28;20026;-68
2022/04/16 02:40:06;;;;;;;10.98;4.50;;;;;;;;;;5009328;28;20434;-67
2022/04/16 02:42:39;;;;;;;18.65;5.47;;;;;;;;;;5009367;28;20520;-67
2022/04/16 02:47:54;;;;;;;11.63;4.88;;;;;;;;;;4992216;28;20402;-68
2022/04/16 02:50:20;;;;;;;12.80;5.30;;;;;;;;;;4993970;28;20121;-68
2022/04/16 02:52:48;;;;;;;17.38;5.82;;;;;;;;;;4993984;28;20081;-68
2022/04/16 02:55:17;;;;;;;11.20;4.88;;;;;;;;;;4993758;28;20470;-68
2022/04/16 02:57:46;;;;;;;12.55;5.18;;;;;;;;;;5008840;28;20094;-69
2022/04/16 03:00:13;;;;;;;11.43;4.97;;;;;;;;;;4994009;28;20081;-68
2022/04/16 03:02:39;;;;;;;18.67;5.15;;;;;;;;;;4978981;28;20091;-68
2022/04/16 03:05:06;;;;;;;16.10;5.80;;;;;;;;;;4974471;28;20070;-68
2022/04/16 03:07:35;;;;;;;19.38;5.35;;;;;;;;;;5004593;28;20093;-68
2022/04/16 03:10:02;;;;;;;13.02;5.70;;;;;;;;;;4992652;28;20146;-68
2022/04/16 03:12:28;;;;;;;17.33;5.70;;;;;;;;;;4993370;28;20122;-68
2022/04/16 03:17:38;;;;;;;13.90;5.75;;;;;;;;;;4989973;28;20037;-68
2022/04/16 03:20:06;;;;;;;17.50;5.65;;;;;;;;;;4993768;28;20043;-68
2022/04/16 03:22:33;;;;;;;12.23;4.82;;;;;;;;;;4993290;28;20034;-68
2022/04/16 03:25:01;;;;;;;13.02;5.32;;;;;;;;;;4989174;28;20042;-68
2022/04/16 03:27:27;;;;;;;16.00;4.88;;;;;;;;;;4989334;28;20519;-68
2022/04/16 03:29:52;;;;;;;22.80;5.78;;;;;;;;;;4974276;28;20031;-68
2022/04/16 03:32:18;;;;;;;16.67;5.18;;;;;;;;;;4974965;28;20022;-68
2022/04/16 03:34:43;;;;;;;23.38;5.28;;;;;;;;;;4988233;28;20034;-68
2022/04/16 03:37:08;;;;;;;15.02;4.97;;;;;;;;;;4994475;28;20034;-68
2022/04/16 03:39:34;;;;;;;16.08;5.28;;;;;;;;;;4997319;28;20042;-68
2022/04/16 03:41:59;;;;;;;17.25;6.30;;;;;;;;;;4997192;28;20402;-69
2022/04/16 03:44:24;;;;;;;27.92;6.03;;;;;;;;;;4997180;28;20390;-68
2022/04/16 03:46:50;;;;;;;32.83;6.28;;;;;;;;;;4984919;28;20023;-68
2022/04/16 03:49:15;;;;;;;29.35;6.30;;;;;;;;;;4977816;28;20042;-69
2022/04/16 03:51:41;;;;;;;41.55;8.43;;;;;;;;;;4977498;28;20085;-68
2022/04/16 04:02:18;;;;;;;38.20;7.38;;;;;;;;;;4977126;28;20054;-68
2022/04/16 04:04:43;;;;;;;40.63;7.22;;;;;;;;;;4977340;28;20034;-68
2022/04/16 04:07:12;;;;;;;97.78;9.60;;;;;;;;;;4977374;28;20471;-68
2022/04/16 04:09:38;;;;;;;128.43;9.27;;;;;;;;;;4993832;28;20041;-67
2022/04/16 04:12:11;;;;;;;91.40;8.82;;;;;;;;;;4981566;28;20105;-67
2022/04/16 04:14:38;;;;;;;112.13;10.07;;;;;;;;;;4996664;28;20122;-67
2022/04/16 04:17:06;;;;;;;133.98;11.85;;;;;;;;;;4996307;28;20462;-68
2022/04/16 04:19:31;;;;;;;95.47;8.88;;;;;;;;;;4996658;28;20045;-68
2022/04/16 04:21:56;;;;;;;100.13;9.60;;;;;;;;;;4993365;28;20038;-69
2022/04/16 04:24:22;;;;;;;139.23;9.77;;;;;;;;;;4991595;28;20046;-68
2022/04/16 04:26:47;;;;;;;109.05;8.90;;;;;;;;;;4976622;28;20063;-68
2022/04/16 04:29:13;;;;;;;130.38;10.70;;;;;;;;;;4977000;28;20049;-68
2022/04/16 04:31:38;;;;;;;158.80;11.77;;;;;;;;;;4976894;28;20034;-68
2022/04/16 04:34:03;;;;;;;117.22;10.95;;;;;;;;;;4980120;28;20030;-68
2022/04/16 04:36:29;;;;;;;94.43;9.57;;;;;;;;;;4996376;28;20042;-68
2022/04/16 04:38:54;;;;;;;91.43;10.15;;;;;;;;;;4996189;28;20062;-68
2022/04/16 04:41:19;;;;;;;136.57;10.57;;;;;;;;;;4996238;28;20039;-67
2022/04/16 04:43:45;;;;;;;153.13;9.63;;;;;;;;;;4995698;28;20035;-67
2022/04/16 04:46:10;;;;;;;143.45;11.93;;;;;;;;;;4990128;28;20031;-67
2022/04/16 04:48:36;;;;;;;125.45;10.32;;;;;;;;;;4975744;28;20041;-68
2022/04/16 04:51:01;;;;;;;116.15;11.20;;;;;;;;;;4982149;28;20046;-68
2022/04/16 04:53:26;;;;;;;73.70;9.32;;;;;;;;;;4995915;28;20030;-67
2022/04/16 04:55:52;;;;;;;73.53;9.20;;;;;;;;;;4995934;28;20077;-68
2022/04/16 04:58:17;;;;;;;90.10;9.32;;;;;;;;;;4994200;28;20394;-67
2022/04/16 05:00:43;;;;;;;82.00;9.05;;;;;;;;;;4994745;28;20034;-67
2022/04/16 05:03:08;;;;;;;84.07;10.25;;;;;;;;;;4995413;28;20046;-67
2022/04/16 05:05:34;;;;;;;80.72;9.63;;;;;;;;;;4995625;28;20049;-67
2022/04/16 05:07:59;;;;;;;115.15;11.63;;;;;;;;;;4992773;28;20026;-68
2022/04/16 05:10:25;;;;;;;138.45;12.02;;;;;;;;;;4994520;28;20048;-67
2022/04/16 05:12:50;;;;;;;105.15;10.20;;;;;;;;;;4995387;28;20110;-67
2022/04/16 05:15:16;;;;;;;171.85;11.43;;;;;;;;;;4995362;28;20035;-67
2022/04/16 05:17:41;;;;;;;121.95;11.45;;;;;;;;;;4995289;28;20455;-68
2022/04/16 05:20:08;;;;;;;94.32;10.30;;;;;;;;;;4983464;28;20054;-67
2022/04/16 05:22:33;;;;;;;75.63;10.05;;;;;;;;;;4991722;28;20485;-68
2022/04/16 05:24:59;;;;;;;101.72;10.85;;;;;;;;;;4995011;28;20034;-68
2022/04/16 05:27:25;;;;;;;85.97;10.35;;;;;;;;;;4995227;28;20127;-67
2022/04/16 05:30:13;;;;;;;106.07;10.45;;;;;;;;;;4994990;28;20085;-68
2022/04/16 05:32:37;;;;;;;98.82;9.88;;;;;;;;;;4992634;28;20049;-67
2022/04/16 05:35:04;;;;;;;99.88;10.55;;;;;;;;;;5005350;28;20049;-68
2022/04/16 05:37:30;;;;;;;91.22;10.50;;;;;;;;;;4993422;28;20113;-67
2022/04/16 05:39:55;;;;;;;102.47;10.77;;;;;;;;;;4994847;28;20030;-68
2022/04/16 05:42:20;;;;;;;80.78;10.43;;;;;;;;;;4994559;28;20443;-68
2022/04/16 05:44:46;;;;;;;108.07;10.68;;;;;;;;;;4993536;28;20044;-68
2022/04/16 05:47:11;;;;;;;117.50;11.60;;;;;;;;;;4994825;28;20069;-68
2022/04/16 05:49:37;;;;;;;145.27;15.25;;;;;;;;;;4989349;28;20073;-67
2022/04/16 05:52:03;;;;;;;119.60;9.82;;;;;;;;;;4994586;28;20046;-68
2022/04/16 05:54:30;;;;;;;113.57;10.68;;;;;;;;;;4994565;28;20026;-68
2022/04/16 05:56:56;;;;;;;123.82;11.18;;;;;;;;;;4993837;28;20038;-67
2022/04/16 05:59:22;;;;;;;137.32;10.57;;;;;;;;;;4981227;28;20112;-68
2022/04/16 06:01:48;;;;;;;122.40;9.68;;;;;;;;;;5002585;28;20030;-68
2022/04/16 06:04:13;;;;;;;141.90;11.10;;;;;;;;;;4992229;28;20046;-68
2022/04/16 06:06:41;;;;;;;103.75;9.80;;;;;;;;;;5009061;28;20494;-67
2022/04/16 06:09:06;;;;;;;94.55;9.02;;;;;;;;;;4993833;28;20046;-67
2022/04/16 06:11:32;;;;;;;132.32;10.32;;;;;;;;;;4986200;28;20034;-67
2022/04/16 06:13:58;;;;;;;121.93;9.75;;;;;;;;;;4987211;28;20042;-67
2022/04/16 06:16:23;;;;;;;80.65;8.30;;;;;;;;;;4994424;28;20482;-67
2022/04/16 06:18:49;;;;;;;112.28;9.73;;;;;;;;;;4994154;28;20038;-68
2022/04/16 06:21:15;;;;;;;86.22;8.82;;;;;;;;;;4992834;28;20125;-68
2022/04/16 06:23:40;;;;;;;69.53;8.80;;;;;;;;;;4992234;28;20030;-68
2022/04/16 06:26:30;;;;;;;72.43;8.68;;;;;;;;;;4993512;28;20038;-67
2022/04/16 06:29:47;;;;;;;69.50;8.00;;;;;;;;;;4994285;28;20378;-68
2022/04/16 06:33:05;;;;;;;65.85;8.57;;;;;;;;;;4993082;28;20041;-67
2022/04/16 06:36:23;;;;;;;28.88;7.50;;;;;;;;;;4992792;28;20038;-67
2022/04/16 06:39:41;;;;;;;43.22;6.88;;;;;;;;;;4992956;28;20378;-68
2022/04/16 06:42:59;;;;;;;37.78;6.85;;;;;;;;;;4993634;28;20398;-67
2022/04/16 06:46:17;;;;;;;29.27;6.50;;;;;;;;;;4992086;28;20276;-67
2022/04/16 06:49:35;;;;;;;28.05;6.30;;;;;;;;;;4993790;28;20038;-68
2022/04/16 06:52:56;;;;;;;29.75;7.38;;;;;;;;;;4993381;28;20042;-68
2022/04/16 06:56:14;;;;;;;18.52;5.85;;;;;;;;;;4991135;28;20061;-68
2022/04/16 06:58:58;;;;;;;34.50;6.47;;;;;;;;;;4974227;28;20182;-68
2022/04/16 07:01:23;;;;;;;;;;;;;;;;;;4975313;28;20067;-68
2022/04/16 07:03:49;;;;;;;17.75;6.00;;;;;;;;;;4992062;28;19964;-67
2022/04/16 07:06:14;;;;;;;20.05;6.13;;;;;;;;;;4988262;28;20394;-67
2022/04/16 07:09:21;;;;;;;23.85;5.78;;;;;;;;;;4987834;28;20079;-68
2022/04/16 07:12:40;;;;;;;14.45;6.30;;;;;;;;;;4993703;28;20039;-68
2022/04/16 07:15:58;;;;;;;10.95;5.47;;;;;;;;;;4997120;28;20478;-68
2022/04/16 07:19:17;;;;;;;12.82;5.63;;;;;;;;;;4997076;28;20109;-68
2022/04/16 07:22:37;;;;;;;10.43;4.78;;;;;;;;;;4979575;28;20455;-68
2022/04/16 07:25:56;;;;;;;11.38;6.25;;;;;;;;;;4997242;28;20042;-67
2022/04/16 07:29:02;;;;;;;11.40;5.75;;;;;;;;;;4996109;28;20471;-68
2022/04/16 07:31:27;;;;;;;10.52;5.30;;;;;;;;;;5006992;28;20115;-68
2022/04/16 07:33:52;;;;;;;8.85;5.03;;;;;;;;;;4989140;28;20185;-68
2022/04/16 07:36:18;;;;;;;10.80;6.00;;;;;;;;;;4992191;28;20038;-68
2022/04/16 07:38:43;;;;;;;10.30;5.57;;;;;;;;;;4996777;28;20034;-68
2022/04/16 07:41:10;;;;;;;11.00;6.32;;;;;;;;;;4987351;28;20049;-69
2022/04/16 07:43:35;;;;;;;8.63;5.60;;;;;;;;;;5011337;28;20164;-69
2022/04/16 07:46:03;;;;;;;10.40;6.20;;;;;;;;;;5010513;28;20121;-68
2022/04/16 07:48:28;;;;;;;10.48;6.28;;;;;;;;;;4995589;28;20041;-68
2022/04/16 07:50:54;;;;;;;10.13;5.40;;;;;;;;;;4996363;28;20034;-68
2022/04/16 07:53:21;;;;;;;10.45;6.43;;;;;;;;;;4996844;28;20469;-67
2022/04/16 07:55:49;;;;;;;10.38;6.22;;;;;;;;;;4996508;28;20472;-68
2022/04/16 07:58:14;;;;;;;10.75;6.65;;;;;;;;;;4996774;28;20034;-68
2022/04/16 08:00:40;;;;;;;11.65;7.25;;;;;;;;;;4994696;28;20137;-67
2022/04/16 08:03:06;;;;;;;12.82;7.85;;;;;;;;;;4988251;28;20057;-69
2022/04/16 08:05:32;;;;;;;13.68;8.07;;;;;;;;;;4979261;28;20031;-68
2022/04/16 08:07:58;;;;;;;16.77;10.65;;;;;;;;;;4986389;28;20364;-68
2022/04/16 08:10:25;;;;;;;20.38;10.90;;;;;;;;;;4991810;28;20173;-68
2022/04/16 08:12:50;;;;;;;18.38;10.60;;;;;;;;;;4995433;28;20041;-68
2022/04/16 08:15:16;;;;;;;19.27;11.40;;;;;;;;;;5010898;28;20114;-68
2022/04/16 08:17:41;;;;;;;20.42;11.50;;;;;;;;;;4983982;28;20415;-68
2022/04/16 08:20:09;;;;;;;19.60;11.30;;;;;;;;;;4986183;28;20426;-68
2022/04/16 08:22:35;;;;;;;17.42;10.77;;;;;;;;;;4982452;28;20299;-68
2022/04/16 08:27:51;;;;;;;22.65;11.93;;;;;;;;;;4993232;28;20045;-68
2022/04/16 08:30:17;;;;;;;20.00;11.68;;;;;;;;;;4980530;28;20117;-69
2022/04/16 08:32:43;;;;;;;19.98;12.10;;;;;;;;;;4984700;28;20066;-68
2022/04/16 08:35:10;;;;;;;19.20;11.57;;;;;;;;;;4993393;28;20042;-68
2022/04/16 08:37:36;;;;;;;18.52;11.70;;;;;;;;;;4991661;28;20027;-69
2022/04/16 08:40:05;;;;;;;21.50;11.68;;;;;;;;;;4985862;28;20038;-69
2022/04/16 08:42:33;;;;;;;22.55;11.57;;;;;;;;;;4992772;28;20045;-68
2022/04/16 08:44:58;;;;;;;20.73;11.95;;;;;;;;;;5004323;28;20125;-68
2022/04/16 08:47:24;;;;;;;18.83;12.13;;;;;;;;;;4989981;28;20180;-68
2022/04/16 08:49:49;;;;;;;17.88;11.25;;;;;;;;;;4989253;28;20034;-69
2022/04/16 08:52:17;;;;;;;17.25;11.07;;;;;;;;;;5010711;28;20485;-69
2022/04/16 08:54:42;;;;;;;21.15;12.05;;;;;;;;;;5009356;28;20038;-68
2022/04/16 08:57:08;;;;;;;21.85;13.00;;;;;;;;;;4988566;28;20022;-68
2022/04/16 08:59:33;;;;;;;22.67;12.90;;;;;;;;;;4993484;28;20046;-68
2022/04/16 09:01:59;;;;;;;19.90;12.02;;;;;;;;;;4996235;28;20443;-68
2022/04/16 09:04:27;;;;;;;20.25;12.40;;;;;;;;;;4976065;28;20217;-67
2022/04/16 09:07:01;;;;;;;20.67;12.38;;;;;;;;;;4978262;28;20031;-67
2022/04/16 09:09:27;;;;;;;;;;;;;;;;;;4980382;28;20133;-68
2022/04/16 09:11:53;;;;;;;19.70;13.02;;;;;;;;;;4989819;28;19989;-68
2022/04/16 09:14:18;;;;;;;20.75;13.13;;;;;;;;;;4978662;28;20472;-68
2022/04/16 09:16:44;;;;;;;21.77;12.07;;;;;;;;;;4983263;28;20054;-68
2022/04/16 09:19:16;;;;;;;19.42;12.20;;;;;;;;;;4987389;28;20034;-68
2022/04/16 09:21:43;;;;;;;20.98;12.25;;;;;;;;;;4993398;28;20452;-69
2022/04/16 09:24:09;;;;;;;21.95;12.05;;;;;;;;;;4994477;28;20036;-68
2022/04/16 09:26:35;;;;;;;18.50;12.23;;;;;;;;;;4993665;28;20385;-68
2022/04/16 09:29:08;;;;;;;20.83;12.07;;;;;;;;;;4989419;28;20049;-68
2022/04/16 09:31:39;;;;;;;19.45;11.85;;;;;;;;;;4978280;28;20026;-68
2022/04/16 09:34:16;;;;;;;22.10;11.43;;;;;;;;;;4980743;28;20131;-68
2022/04/16 09:36:44;;;;;;;16.88;11.52;;;;;;;;;;4975321;28;20023;-68
2022/04/16 09:39:10;;;;;;;17.40;12.13;;;;;;;;;;4982881;28;20564;-67
2022/04/16 09:41:38;;;;;;;22.85;13.65;;;;;;;;;;4988456;28;20455;-68
2022/04/16 09:44:04;;;;;;;20.08;12.93;;;;;;;;;;4988381;28;20470;-68
2022/04/16 09:46:31;;;;;;;19.42;11.38;;;;;;;;;;5005869;28;20050;-68
2022/04/16 09:49:06;;;;;;;20.92;12.73;;;;;;;;;;4995249;28;20030;-68
2022/04/16 09:51:35;;;;;;;24.02;14.27;;;;;;;;;;4985067;28;20039;-68
2022/04/16 09:54:05;;;;;;;24.08;15.07;;;;;;;;;;4984047;28;20030;-68
2022/04/16 09:56:35;;;;;;;26.38;14.15;;;;;;;;;;4986662;28;20026;-67
2022/04/16 09:59:12;;;;;;;24.85;15.52;;;;;;;;;;4977212;28;20085;-68
2022/04/16 10:01:39;;;;;;;26.50;16.33;;;;;;;;;;4987367;28;20027;-68
2022/04/16 10:04:06;;;;;;;25.77;15.75;;;;;;;;;;4987119;28;20057;-68
2022/04/16 10:06:32;;;;;;;30.33;18.08;;;;;;;;;;4998959;28;20026;-68
2022/04/16 10:09:00;;;;;;;32.10;18.55;;;;;;;;;;4980056;28;20159;-68
2022/04/16 10:11:42;;;;;;;29.98;19.08;;;;;;;;;;5009173;28;20050;-68
2022/04/16 10:14:50;;;;;;;34.33;19.23;;;;;;;;;;4992915;28;20050;-69
2022/04/16 10:17:24;;;;;;;34.90;21.02;;;;;;;;;;4970846;28;20054;-69
2022/04/16 10:19:49;;;;;;;;;;;;;;;;;;4980260;28;20066;-68
2022/04/16 10:22:25;;;;;;;36.33;21.17;;;;;;;;;;4981263;28;19953;-68
2022/04/16 10:24:57;;;;;;;37.00;22.42;;;;;;;;;;4991153;28;20048;-68
2022/04/16 10:27:30;;;;;;;36.65;22.85;;;;;;;;;;4993434;28;20045;-68
2022/04/16 10:30:00;;;;;;;35.30;20.52;;;;;;;;;;4985691;28;20043;-68
2022/04/16 10:32:37;;;;;;;35.22;21.58;;;;;;;;;;4978360;28;20039;-68
2022/04/16 10:35:12;;;;;;;38.03;22.38;;;;;;;;;;4998295;28;20069;-68
2022/04/16 10:37:39;;;;;;;38.25;21.90;;;;;;;;;;4995235;28;20031;-70
2022/04/16 10:40:18;;;;;;;34.63;22.33;;;;;;;;;;4990300;28;20166;-68
2022/04/16 10:42:48;;;;;;;40.03;22.77;;;;;;;;;;4987547;28;20062;-68
2022/04/16 10:45:14;;;;;;;40.28;22.73;;;;;;;;;;4981529;28;20121;-68
2022/04/16 10:47:41;;;;;;;41.13;22.88;;;;;;;;;;4978375;28;20161;-68
2022/04/16 10:50:15;;;;;;;37.65;21.92;;;;;;;;;;5001604;28;20073;-68
2022/04/16 10:52:51;;;;;;;34.22;20.55;;;;;;;;;;4983568;28;20502;-68
2022/04/16 10:55:17;;;;;;;37.28;20.60;;;;;;;;;;4984117;28;20030;-68
2022/04/16 10:57:42;;;;;;;45.08;22.67;;;;;;;;;;5008456;28;20037;-67
2022/04/16 11:00:12;;;;;;;39.17;21.88;;;;;;;;;;4994982;28;20393;-67
2022/04/16 11:02:38;;;;;;;43.60;24.48;;;;;;;;;;4984137;28;20051;-68
2022/04/16 11:05:11;;;;;;;43.78;22.33;;;;;;;;;;4988772;28;20117;-68
2022/04/16 11:07:38;;;;;;;43.23;24.00;;;;;;;;;;4995416;28;20062;-68
2022/04/16 11:10:14;;;;;;;40.45;23.73;;;;;;;;;;4994647;28;20292;-68
2022/04/16 11:12:40;;;;;;;42.60;23.20;;;;;;;;;;5001716;28;20109;-67
2022/04/16 11:15:13;;;;;;;39.40;22.48;;;;;;;;;;4993472;28;20046;-68
2022/04/16 11:17:39;;;;;;;41.53;22.50;;;;;;;;;;4990476;28;20225;-68
2022/04/16 11:20:06;;;;;;;39.13;22.45;;;;;;;;;;4984942;28;20620;-68
2022/04/16 11:22:32;;;;;;;38.20;23.90;;;;;;;;;;4999378;28;20053;-67
2022/04/16 11:24:58;;;;;;;40.08;22.85;;;;;;;;;;4991210;28;20088;-68
2022/04/16 11:36:00;;;;;;;45.45;22.65;;;;;;;;;;4987824;28;20154;-69
2022/04/16 11:38:30;;;;;;;43.60;20.77;;;;;;;;;;4986149;28;20046;-68
2022/04/16 11:40:57;;;;;;;37.42;22.25;;;;;;;;;;5002705;28;20509;-69
2022/04/16 11:43:24;;;;;;;41.83;20.77;;;;;;;;;;4979428;28;20069;-68
2022/04/16 11:45:50;;;;;;;37.58;18.92;;;;;;;;;;5001206;28;20045;-68
2022/04/16 11:48:16;;;;;;;38.05;20.95;;;;;;;;;;4991744;28;20058;-68
2022/04/16 11:50:43;;;;;;;33.05;20.77;;;;;;;;;;4975635;28;20047;-68
2022/04/16 11:53:11;;;;;;;30.92;19.75;;;;;;;;;;5003738;28;20113;-68
2022/04/16 11:55:47;;;;;;;32.72;19.55;;;;;;;;;;4987266;28;20034;-68
2022/04/16 11:58:13;;;;;;;32.08;19.08;;;;;;;;;;4977797;28;20195;-69
2022/04/16 12:00:54;;;;;;;36.60;20.15;;;;;;;;;;4990711;28;20046;-68
2022/04/16 12:03:19;;;;;;;31.40;18.48;;;;;;;;;;4997161;28;20381;-68
2022/04/16 12:05:48;;;;;;;31.58;17.52;;;;;;;;;;5003005;28;20540;-69
2022/04/16 12:08:16;;;;;;;29.10;17.63;;;;;;;;;;4990953;28;20043;-68
2022/04/16 12:10:47;;;;;;;30.38;17.48;;;;;;;;;;4993574;28;20073;-68
2022/04/16 12:13:13;;;;;;;30.55;17.92;;;;;;;;;;4979018;28;20127;-69
2022/04/16 12:15:40;;;;;;;25.08;15.75;;;;;;;;;;4982286;28;20073;-68
2022/04/16 12:18:11;;;;;;;25.02;14.80;;;;;;;;;;5000879;28;20038;-69
2022/04/16 12:20:41;;;;;;;24.35;14.52;;;;;;;;;;4984440;28;20031;-68
2022/04/16 12:23:10;;;;;;;24.25;15.02;;;;;;;;;;4999824;28;20121;-68
2022/04/16 12:25:36;;;;;;;24.85;14.40;;;;;;;;;;4990288;28;20141;-68
2022/04/16 12:28:02;;;;;;;24.48;13.77;;;;;;;;;;4996002;28;20125;-68
2022/04/16 12:30:31;;;;;;;25.75;14.75;;;;;;;;;;4984241;28;20026;-68
2022/04/16 12:33:10;;;;;;;22.70;13.70;;;;;;;;;;4990307;28;20035;-68
2022/04/16 12:35:38;;;;;;;23.98;13.73;;;;;;;;;;4992285;28;20037;-68
2022/04/16 12:38:04;;;;;;;25.63;14.07;;;;;;;;;;4998232;28;20117;-68
2022/04/16 12:40:32;;;;;;;25.58;15.18;;;;;;;;;;4992968;28;20447;-69
2022/04/16 12:42:58;;;;;;;26.27;14.60;;;;;;;;;;4988473;28;20039;-68
2022/04/16 12:45:24;;;;;;;22.63;14.10;;;;;;;;;;4994322;28;20042;-68
2022/04/16 12:47:51;;;;;;;27.10;13.85;;;;;;;;;;4988853;28;20038;-68
2022/04/16 12:50:16;;;;;;;23.48;14.63;;;;;;;;;;4979089;28;20035;-68
2022/04/16 12:52:43;;;;;;;23.73;14.15;;;;;;;;;;4988375;28;20048;-68
2022/04/16 12:55:09;;;;;;;25.60;14.27;;;;;;;;;;4975410;28;20039;-68
2022/04/16 12:57:34;;;;;;;27.60;14.48;;;;;;;;;;4997280;28;20485;-68
2022/04/16 13:00:00;;;;;;;21.63;13.35;;;;;;;;;;5004009;28;20157;-68
2022/04/16 13:02:26;;;;;;;27.38;15.48;;;;;;;;;;5002469;28;20039;-68
2022/04/16 13:04:52;;;;;;;25.48;13.30;;;;;;;;;;4985485;28;20053;-68
2022/04/16 13:07:17;;;;;;;28.92;14.13;;;;;;;;;;4987015;28;20031;-68
2022/04/16 13:09:43;;;;;;;21.52;14.68;;;;;;;;;;4981972;28;20048;-68
2022/04/16 13:12:09;;;;;;;23.20;13.65;;;;;;;;;;5002772;28;20038;-68
2022/04/16 13:14:34;;;;;;;21.95;12.70;;;;;;;;;;4994124;28;20038;-68
2022/04/16 13:17:02;;;;;;;23.75;12.88;;;;;;;;;;4978517;28;20090;-68
2022/04/16 13:19:28;;;;;;;24.05;13.15;;;;;;;;;;4988945;28;20074;-68
2022/04/16 13:21:55;;;;;;;21.83;13.80;;;;;;;;;;4977855;28;20058;-68
2022/04/16 13:24:20;;;;;;;20.13;13.50;;;;;;;;;;4977956;28;20467;-68
2022/04/16 13:26:46;;;;;;;23.58;12.73;;;;;;;;;;4993766;28;20045;-68
2022/04/16 13:29:11;;;;;;;23.10;13.57;;;;;;;;;;4995083;28;20031;-68
2022/04/16 13:31:38;;;;;;;21.35;12.18;;;;;;;;;;4986259;28;20038;-68
2022/04/16 13:34:04;;;;;;;25.58;13.52;;;;;;;;;;4978402;28;20049;-68
2022/04/16 13:36:29;;;;;;;20.95;11.80;;;;;;;;;;4992546;28;20386;-68
2022/04/16 13:38:55;;;;;;;23.40;12.73;;;;;;;;;;4990020;28;20116;-68
2022/04/16 13:41:39;;;;;;;18.00;11.50;;;;;;;;;;4983231;28;20035;-68
2022/04/16 13:44:06;;;;;;;27.55;13.25;;;;;;;;;;4991540;28;20447;-68
2022/04/16 13:46:33;;;;;;;18.40;11.85;;;;;;;;;;4988533;28;20367;-68
2022/04/16 13:48:58;;;;;;;19.98;12.57;;;;;;;;;;4993372;28;20069;-68
2022/04/16 13:51:24;;;;;;;25.60;12.60;;;;;;;;;;4991598;28;20039;-68
2022/04/16 13:53:49;;;;;;;20.83;12.45;;;;;;;;;;4992930;28;20038;-68
2022/04/16 13:56:15;;;;;;;18.60;11.07;;;;;;;;;;4992368;28;20121;-68
2022/04/16 13:58:40;;;;;;;19.95;11.95;;;;;;;;;;4986989;28;20027;-69
2022/04/16 14:01:06;;;;;;;22.05;12.05;;;;;;;;;;4982096;28;20495;-69
2022/04/16 14:03:32;;;;;;;19.13;11.27;;;;;;;;;;5007583;28;20026;-68
2022/04/16 14:05:57;;;;;;;20.13;11.70;;;;;;;;;;4984703;28;20034;-69
2022/04/16 14:08:23;;;;;;;21.48;12.13;;;;;;;;;;5011535;28;20046;-68
2022/04/16 14:10:49;;;;;;;22.90;12.52;;;;;;;;;;5009133;28;20049;-69
2022/04/16 14:13:15;;;;;;;19.08;11.65;;;;;;;;;;5013226;28;20376;-68
2022/04/16 14:15:41;;;;;;;18.85;11.45;;;;;;;;;;5013213;28;20117;-68
2022/04/16 14:18:06;;;;;;;19.67;11.13;;;;;;;;;;5004868;28;20039;-68
2022/04/16 14:20:32;;;;;;;20.05;11.90;;;;;;;;;;4994074;28;20026;-68
2022/04/16 14:22:58;;;;;;;20.45;11.23;;;;;;;;;;5009184;28;20035;-68
2022/04/16 14:25:24;;;;;;;20.75;11.95;;;;;;;;;;4994356;28;20034;-68
2022/04/16 14:27:51;;;;;;;20.10;11.18;;;;;;;;;;4994155;28;20060;-68
2022/04/16 14:30:18;;;;;;;17.70;10.10;;;;;;;;;;4994364;28;20042;-68
2022/04/16 14:32:44;;;;;;;17.80;10.30;;;;;;;;;;5009264;28;20030;-68
2022/04/16 14:35:11;;;;;;;19.30;9.55;;;;;;;;;;4994322;28;20381;-68
2022/04/16 14:37:37;;;;;;;16.40;10.73;;;;;;;;;;4994224;28;20034;-68
2022/04/16 14:40:03;;;;;;;19.05;11.02;;;;;;;;;;4993314;28;20076;-68
2022/04/16 14:42:29;;;;;;;16.10;9.60;;;;;;;;;;4994473;28;20026;-68
2022/04/16 14:44:54;;;;;;;18.48;10.30;;;;;;;;;;4994102;28;20050;-67
2022/04/16 14:47:21;;;;;;;21.00;11.07;;;;;;;;;;5009299;28;20145;-68
2022/04/16 14:49:47;;;;;;;16.70;9.35;;;;;;;;;;4994196;28;20419;-68
2022/04/16 14:52:13;;;;;;;22.50;11.13;;;;;;;;;;4994200;28;20038;-68
2022/04/16 14:54:38;;;;;;;20.98;10.05;;;;;;;;;;4994105;28;20038;-68
2022/04/16 14:57:04;;;;;;;19.35;10.95;;;;;;;;;;4994208;28;20169;-68
2022/04/16 14:59:29;;;;;;;16.58;9.13;;;;;;;;;;4993634;28;20042;-68
2022/04/16 15:01:55;;;;;;;17.80;10.07;;;;;;;;;;4993717;28;20042;-68